sensor_id;sensor_type;location;lat;lon;timestamp;P1;durP1;ratioP1;P2;durP2;ratioP2
38609;SDS011;24367;51.640;9.566;2022-07-29T00:01:06;4.85;;;2.35;;
38609;SDS011;24367;51.640;9.566;2022-07-29T00:03:32;3.55;;;1.90;;
38609;SDS011;24367;51.640;9.566;2022-07-29T00:05:59;6.18;;;1.77;;
38609;SDS011;24367;51.640;9.566;2022-07-29T00:08:25;6.28;;;1.83;;
38609;SDS011;24367;51.640;9.566;2022-07-29T00:10:52;3.50;;;1.80;;
38609;SDS011;24367;51.640;9.566;2022-07-29T00:13:19;2.75;;;1.20;;
38609;SDS011;24367;51.640;9.566;2022-07-29T00:15:46;4.40;;;1.85;;
38609;SDS011;24367;51.640;9.566;2022-07-29T00:18:12;6.93;;;1.60;;
38609;SDS011;24367;51.640;9.566;2022-07-29T00:20:39;4.95;;;1.55;;
38609;SDS011;24367;51.640;9.566;2022-07-29T00:23:05;3.83;;;1.50;;
38609;SDS011;24367;51.640;9.566;2022-07-29T00:25:32;5.00;;;1.65;;
38609;SDS011;24367;51.640;9.566;2022-07-29T00:27:58;5.00;;;1.65;;
38609;SDS011;24367;51.640;9.566;2022-07-29T00:30:26;4.50;;;1.40;;
38609;SDS011;24367;51.640;9.566;2022-07-29T00:32:52;4.38;;;1.77;;
38609;SDS011;24367;51.640;9.566;2022-07-29T00:35:19;5.63;;;1.65;;
38609;SDS011;24367;51.640;9.566;2022-07-29T00:38:03;3.83;;;1.45;;
38609;SDS011;24367;51.640;9.566;2022-07-29T00:40:29;5.50;;;1.65;;
38609;SDS011;24367;51.640;9.566;2022-07-29T00:42:56;2.63;;;1.17;;
38609;SDS011;24367;51.640;9.566;2022-07-29T00:45:22;4.95;;;1.40;;
38609;SDS011;24367;51.640;9.566;2022-07-29T00:47:50;4.57;;;1.58;;
38609;SDS011;24367;51.640;9.566;2022-07-29T00:50:17;3.08;;;1.35;;
38609;SDS011;24367;51.640;9.566;2022-07-29T00:52:43;4.47;;;1.30;;
38609;SDS011;24367;51.640;9.566;2022-07-29T00:55:11;3.13;;;1.40;;
38609;SDS011;24367;51.640;9.566;2022-07-29T00:57:39;6.93;;;1.40;;
38609;SDS011;24367;51.640;9.566;2022-07-29T01:00:07;3.35;;;1.42;;
38609;SDS011;24367;51.640;9.566;2022-07-29T01:02:35;3.75;;;1.52;;
38609;SDS011;24367;51.640;9.566;2022-07-29T01:05:03;2.70;;;1.27;;
38609;SDS011;24367;51.640;9.566;2022-07-29T01:07:31;3.10;;;1.40;;
38609;SDS011;24367;51.640;9.566;2022-07-29T01:09:58;5.50;;;1.70;;
38609;SDS011;24367;51.640;9.566;2022-07-29T01:12:25;5.35;;;1.33;;
38609;SDS011;24367;51.640;9.566;2022-07-29T01:14:53;3.72;;;1.25;;
38609;SDS011;24367;51.640;9.566;2022-07-29T01:17:21;3.20;;;1.50;;
38609;SDS011;24367;51.640;9.566;2022-07-29T01:19:51;6.55;;;1.50;;
38609;SDS011;24367;51.640;9.566;2022-07-29T01:22:27;2.10;;;0.98;;
38609;SDS011;24367;51.640;9.566;2022-07-29T01:25:02;2.47;;;1.15;;
38609;SDS011;24367;51.640;9.566;2022-07-29T01:27:35;4.30;;;1.25;;
38609;SDS011;24367;51.640;9.566;2022-07-29T01:30:08;2.92;;;1.30;;
38609;SDS011;24367;51.640;9.566;2022-07-29T01:32:35;3.25;;;1.30;;
38609;SDS011;24367;51.640;9.566;2022-07-29T01:35:03;3.20;;;1.27;;
38609;SDS011;24367;51.640;9.566;2022-07-29T01:37:32;3.72;;;1.35;;
38609;SDS011;24367;51.640;9.566;2022-07-29T01:40:04;3.30;;;1.60;;
38609;SDS011;24367;51.640;9.566;2022-07-29T01:42:32;3.00;;;1.30;;
38609;SDS011;24367;51.640;9.566;2022-07-29T01:45:02;3.75;;;1.48;;
38609;SDS011;24367;51.640;9.566;2022-07-29T01:47:34;2.72;;;1.20;;
38609;SDS011;24367;51.640;9.566;2022-07-29T01:50:06;5.45;;;1.38;;
38609;SDS011;24367;51.640;9.566;2022-07-29T01:52:36;2.58;;;1.20;;
38609;SDS011;24367;51.640;9.566;2022-07-29T01:55:06;3.55;;;1.15;;
38609;SDS011;24367;51.640;9.566;2022-07-29T01:57:34;5.78;;;1.65;;
38609;SDS011;24367;51.640;9.566;2022-07-29T02:00:03;5.00;;;1.17;;
38609;SDS011;24367;51.640;9.566;2022-07-29T02:02:38;3.10;;;1.33;;
38609;SDS011;24367;51.640;9.566;2022-07-29T02:05:07;2.30;;;1.27;;
38609;SDS011;24367;51.640;9.566;2022-07-29T02:07:34;2.17;;;0.93;;
38609;SDS011;24367;51.640;9.566;2022-07-29T02:10:03;4.00;;;1.40;;
38609;SDS011;24367;51.640;9.566;2022-07-29T02:12:31;2.80;;;1.30;;
38609;SDS011;24367;51.640;9.566;2022-07-29T02:14:59;3.15;;;1.30;;
38609;SDS011;24367;51.640;9.566;2022-07-29T02:17:28;2.10;;;1.10;;
38609;SDS011;24367;51.640;9.566;2022-07-29T02:20:00;3.88;;;1.58;;
38609;SDS011;24367;51.640;9.566;2022-07-29T02:22:30;3.50;;;1.23;;
38609;SDS011;24367;51.640;9.566;2022-07-29T02:24:57;5.32;;;1.08;;
38609;SDS011;24367;51.640;9.566;2022-07-29T02:27:24;1.90;;;0.80;;
38609;SDS011;24367;51.640;9.566;2022-07-29T02:29:52;4.78;;;1.23;;
38609;SDS011;24367;51.640;9.566;2022-07-29T02:32:19;2.42;;;1.00;;
38609;SDS011;24367;51.640;9.566;2022-07-29T02:34:47;3.38;;;1.27;;
38609;SDS011;24367;51.640;9.566;2022-07-29T02:37:16;4.15;;;1.40;;
38609;SDS011;24367;51.640;9.566;2022-07-29T02:39:44;2.78;;;1.27;;
38609;SDS011;24367;51.640;9.566;2022-07-29T02:42:11;2.33;;;1.23;;
38609;SDS011;24367;51.640;9.566;2022-07-29T02:44:39;4.05;;;1.40;;
38609;SDS011;24367;51.640;9.566;2022-07-29T02:47:10;3.42;;;1.20;;
38609;SDS011;24367;51.640;9.566;2022-07-29T02:49:38;2.60;;;1.27;;
38609;SDS011;24367;51.640;9.566;2022-07-29T02:52:08;3.25;;;1.40;;
38609;SDS011;24367;51.640;9.566;2022-07-29T02:54:39;6.40;;;1.48;;
38609;SDS011;24367;51.640;9.566;2022-07-29T02:57:09;2.67;;;1.38;;
38609;SDS011;24367;51.640;9.566;2022-07-29T02:59:47;3.00;;;1.60;;
38609;SDS011;24367;51.640;9.566;2022-07-29T03:02:14;2.83;;;1.20;;
38609;SDS011;24367;51.640;9.566;2022-07-29T03:04:41;3.00;;;1.23;;
38609;SDS011;24367;51.640;9.566;2022-07-29T03:07:09;2.65;;;1.48;;
38609;SDS011;24367;51.640;9.566;2022-07-29T03:09:38;5.32;;;1.63;;
38609;SDS011;24367;51.640;9.566;2022-07-29T03:12:08;3.38;;;1.05;;
38609;SDS011;24367;51.640;9.566;2022-07-29T03:14:34;4.38;;;1.38;;
38609;SDS011;24367;51.640;9.566;2022-07-29T03:17:02;2.55;;;1.17;;
38609;SDS011;24367;51.640;9.566;2022-07-29T03:19:28;4.45;;;1.40;;
38609;SDS011;24367;51.640;9.566;2022-07-29T03:21:55;3.63;;;1.10;;
38609;SDS011;24367;51.640;9.566;2022-07-29T03:24:26;2.92;;;1.10;;
38609;SDS011;24367;51.640;9.566;2022-07-29T03:26:55;3.10;;;1.40;;
38609;SDS011;24367;51.640;9.566;2022-07-29T03:29:22;3.97;;;1.42;;
38609;SDS011;24367;51.640;9.566;2022-07-29T03:31:48;3.13;;;1.45;;
38609;SDS011;24367;51.640;9.566;2022-07-29T03:34:15;3.97;;;1.20;;
38609;SDS011;24367;51.640;9.566;2022-07-29T03:36:41;3.80;;;1.38;;
38609;SDS011;24367;51.640;9.566;2022-07-29T03:39:08;3.35;;;1.67;;
38609;SDS011;24367;51.640;9.566;2022-07-29T03:41:35;3.30;;;1.27;;
38609;SDS011;24367;51.640;9.566;2022-07-29T03:44:04;3.35;;;1.65;;
38609;SDS011;24367;51.640;9.566;2022-07-29T03:46:32;3.13;;;1.27;;
38609;SDS011;24367;51.640;9.566;2022-07-29T03:49:00;3.67;;;1.35;;
38609;SDS011;24367;51.640;9.566;2022-07-29T03:51:27;3.53;;;1.30;;
38609;SDS011;24367;51.640;9.566;2022-07-29T03:53:53;3.67;;;1.35;;
38609;SDS011;24367;51.640;9.566;2022-07-29T03:56:21;3.67;;;1.27;;
38609;SDS011;24367;51.640;9.566;2022-07-29T03:58:48;3.22;;;1.50;;
38609;SDS011;24367;51.640;9.566;2022-07-29T04:01:17;3.15;;;1.17;;
38609;SDS011;24367;51.640;9.566;2022-07-29T04:03:44;2.67;;;1.15;;
38609;SDS011;24367;51.640;9.566;2022-07-29T04:06:11;3.78;;;1.60;;
38609;SDS011;24367;51.640;9.566;2022-07-29T04:08:38;2.92;;;1.20;;
38609;SDS011;24367;51.640;9.566;2022-07-29T04:11:04;4.47;;;1.58;;
38609;SDS011;24367;51.640;9.566;2022-07-29T04:13:32;2.75;;;1.23;;
38609;SDS011;24367;51.640;9.566;2022-07-29T04:15:58;4.55;;;1.00;;
38609;SDS011;24367;51.640;9.566;2022-07-29T04:18:26;3.88;;;1.27;;
38609;SDS011;24367;51.640;9.566;2022-07-29T04:20:52;4.07;;;1.30;;
38609;SDS011;24367;51.640;9.566;2022-07-29T04:23:19;2.35;;;1.10;;
38609;SDS011;24367;51.640;9.566;2022-07-29T04:25:45;2.22;;;1.27;;
38609;SDS011;24367;51.640;9.566;2022-07-29T04:28:12;3.17;;;1.10;;
38609;SDS011;24367;51.640;9.566;2022-07-29T04:30:39;2.53;;;1.05;;
38609;SDS011;24367;51.640;9.566;2022-07-29T04:33:06;3.03;;;1.40;;
38609;SDS011;24367;51.640;9.566;2022-07-29T04:35:35;3.33;;;1.45;;
38609;SDS011;24367;51.640;9.566;2022-07-29T04:38:02;2.70;;;1.25;;
38609;SDS011;24367;51.640;9.566;2022-07-29T04:40:29;3.65;;;1.15;;
38609;SDS011;24367;51.640;9.566;2022-07-29T04:42:55;2.85;;;1.38;;
38609;SDS011;24367;51.640;9.566;2022-07-29T04:45:22;3.30;;;1.10;;
38609;SDS011;24367;51.640;9.566;2022-07-29T04:47:48;2.17;;;1.20;;
38609;SDS011;24367;51.640;9.566;2022-07-29T04:50:14;2.53;;;1.20;;
38609;SDS011;24367;51.640;9.566;2022-07-29T04:52:42;3.42;;;1.27;;
38609;SDS011;24367;51.640;9.566;2022-07-29T04:55:09;2.72;;;1.10;;
38609;SDS011;24367;51.640;9.566;2022-07-29T04:57:35;2.78;;;1.13;;
38609;SDS011;24367;51.640;9.566;2022-07-29T05:00:02;2.45;;;1.00;;
38609;SDS011;24367;51.640;9.566;2022-07-29T05:02:30;2.47;;;1.10;;
38609;SDS011;24367;51.640;9.566;2022-07-29T05:04:56;2.95;;;1.23;;
38609;SDS011;24367;51.640;9.566;2022-07-29T05:07:22;5.03;;;1.33;;
38609;SDS011;24367;51.640;9.566;2022-07-29T05:09:50;2.60;;;1.30;;
38609;SDS011;24367;51.640;9.566;2022-07-29T05:12:18;2.97;;;1.23;;
38609;SDS011;24367;51.640;9.566;2022-07-29T05:14:44;2.38;;;1.10;;
38609;SDS011;24367;51.640;9.566;2022-07-29T05:17:10;3.40;;;1.20;;
38609;SDS011;24367;51.640;9.566;2022-07-29T05:19:37;3.17;;;1.27;;
38609;SDS011;24367;51.640;9.566;2022-07-29T05:22:03;2.63;;;1.23;;
38609;SDS011;24367;51.640;9.566;2022-07-29T05:24:30;2.92;;;1.48;;
38609;SDS011;24367;51.640;9.566;2022-07-29T05:26:58;2.22;;;1.17;;
38609;SDS011;24367;51.640;9.566;2022-07-29T05:29:24;4.68;;;1.40;;
38609;SDS011;24367;51.640;9.566;2022-07-29T05:31:51;2.85;;;1.10;;
38609;SDS011;24367;51.640;9.566;2022-07-29T05:34:18;3.85;;;1.52;;
38609;SDS011;24367;51.640;9.566;2022-07-29T05:36:44;2.70;;;1.30;;
38609;SDS011;24367;51.640;9.566;2022-07-29T05:39:11;6.05;;;1.67;;
38609;SDS011;24367;51.640;9.566;2022-07-29T05:41:37;2.25;;;1.08;;
38609;SDS011;24367;51.640;9.566;2022-07-29T05:44:06;3.28;;;1.20;;
38609;SDS011;24367;51.640;9.566;2022-07-29T05:46:32;2.15;;;1.10;;
38609;SDS011;24367;51.640;9.566;2022-07-29T05:48:59;2.80;;;1.17;;
38609;SDS011;24367;51.640;9.566;2022-07-29T05:51:26;2.15;;;0.93;;
38609;SDS011;24367;51.640;9.566;2022-07-29T05:53:52;3.78;;;1.38;;
38609;SDS011;24367;51.640;9.566;2022-07-29T05:56:18;5.05;;;1.23;;
38609;SDS011;24367;51.640;9.566;2022-07-29T05:58:45;6.43;;;1.58;;
38609;SDS011;24367;51.640;9.566;2022-07-29T06:01:13;4.85;;;1.25;;
38609;SDS011;24367;51.640;9.566;2022-07-29T06:03:39;3.00;;;0.93;;
38609;SDS011;24367;51.640;9.566;2022-07-29T06:06:06;4.00;;;1.20;;
38609;SDS011;24367;51.640;9.566;2022-07-29T06:08:32;4.15;;;1.85;;
38609;SDS011;24367;51.640;9.566;2022-07-29T06:10:59;2.53;;;1.13;;
38609;SDS011;24367;51.640;9.566;2022-07-29T06:13:26;5.75;;;1.40;;
38609;SDS011;24367;51.640;9.566;2022-07-29T06:15:52;2.72;;;1.33;;
38609;SDS011;24367;51.640;9.566;2022-07-29T06:18:20;5.18;;;1.33;;
38609;SDS011;24367;51.640;9.566;2022-07-29T06:20:48;2.85;;;1.27;;
38609;SDS011;24367;51.640;9.566;2022-07-29T06:23:15;4.93;;;1.77;;
38609;SDS011;24367;51.640;9.566;2022-07-29T06:25:41;3.95;;;1.58;;
38609;SDS011;24367;51.640;9.566;2022-07-29T06:28:08;3.72;;;1.30;;
38609;SDS011;24367;51.640;9.566;2022-07-29T06:30:34;4.28;;;1.25;;
38609;SDS011;24367;51.640;9.566;2022-07-29T06:33:01;4.07;;;1.27;;
38609;SDS011;24367;51.640;9.566;2022-07-29T06:35:29;3.88;;;1.30;;
38609;SDS011;24367;51.640;9.566;2022-07-29T06:37:55;3.33;;;1.20;;
38609;SDS011;24367;51.640;9.566;2022-07-29T06:40:22;2.97;;;1.00;;
38609;SDS011;24367;51.640;9.566;2022-07-29T06:43:06;3.22;;;1.20;;
38609;SDS011;24367;51.640;9.566;2022-07-29T06:45:33;4.82;;;1.10;;
38609;SDS011;24367;51.640;9.566;2022-07-29T06:48:00;3.95;;;1.50;;
38609;SDS011;24367;51.640;9.566;2022-07-29T06:50:26;3.58;;;1.20;;
38609;SDS011;24367;51.640;9.566;2022-07-29T06:52:54;2.30;;;0.95;;
38609;SDS011;24367;51.640;9.566;2022-07-29T06:55:20;2.60;;;1.20;;
38609;SDS011;24367;51.640;9.566;2022-07-29T06:57:47;8.15;;;1.63;;
38609;SDS011;24367;51.640;9.566;2022-07-29T07:00:13;8.82;;;1.60;;
38609;SDS011;24367;51.640;9.566;2022-07-29T07:02:40;6.45;;;1.42;;
38609;SDS011;24367;51.640;9.566;2022-07-29T07:05:07;6.53;;;1.52;;
38609;SDS011;24367;51.640;9.566;2022-07-29T07:07:33;14.18;;;2.03;;
38609;SDS011;24367;51.640;9.566;2022-07-29T07:10:01;8.05;;;1.98;;
38609;SDS011;24367;51.640;9.566;2022-07-29T07:12:27;8.85;;;2.33;;
38609;SDS011;24367;51.640;9.566;2022-07-29T07:14:54;9.82;;;2.05;;
38609;SDS011;24367;51.640;9.566;2022-07-29T07:17:20;4.30;;;1.35;;
38609;SDS011;24367;51.640;9.566;2022-07-29T07:19:47;7.50;;;1.88;;
38609;SDS011;24367;51.640;9.566;2022-07-29T07:22:13;7.18;;;1.50;;
38609;SDS011;24367;51.640;9.566;2022-07-29T07:24:39;7.18;;;2.00;;
38609;SDS011;24367;51.640;9.566;2022-07-29T07:27:07;8.23;;;1.92;;
38609;SDS011;24367;51.640;9.566;2022-07-29T07:29:34;4.88;;;1.77;;
38609;SDS011;24367;51.640;9.566;2022-07-29T07:32:01;9.98;;;2.28;;
38609;SDS011;24367;51.640;9.566;2022-07-29T07:34:28;7.25;;;1.85;;
38609;SDS011;24367;51.640;9.566;2022-07-29T07:36:55;6.75;;;1.83;;
38609;SDS011;24367;51.640;9.566;2022-07-29T07:39:21;6.45;;;1.70;;
38609;SDS011;24367;51.640;9.566;2022-07-29T07:41:47;8.98;;;1.63;;
38609;SDS011;24367;51.640;9.566;2022-07-29T07:44:15;7.70;;;1.80;;
38609;SDS011;24367;51.640;9.566;2022-07-29T07:46:42;6.15;;;1.90;;
38609;SDS011;24367;51.640;9.566;2022-07-29T07:49:09;3.63;;;1.77;;
38609;SDS011;24367;51.640;9.566;2022-07-29T07:51:36;5.97;;;1.75;;
38609;SDS011;24367;51.640;9.566;2022-07-29T07:54:03;5.03;;;1.80;;
38609;SDS011;24367;51.640;9.566;2022-07-29T07:56:30;5.03;;;1.65;;
38609;SDS011;24367;51.640;9.566;2022-07-29T07:58:56;3.88;;;1.55;;
38609;SDS011;24367;51.640;9.566;2022-07-29T08:01:24;3.60;;;1.73;;
38609;SDS011;24367;51.640;9.566;2022-07-29T08:03:50;6.75;;;1.70;;
38609;SDS011;24367;51.640;9.566;2022-07-29T08:06:17;7.80;;;1.60;;
38609;SDS011;24367;51.640;9.566;2022-07-29T08:08:43;7.25;;;1.83;;
38609;SDS011;24367;51.640;9.566;2022-07-29T08:11:09;8.40;;;1.80;;
38609;SDS011;24367;51.640;9.566;2022-07-29T08:13:36;2.80;;;1.52;;
38609;SDS011;24367;51.640;9.566;2022-07-29T08:16:03;5.00;;;1.83;;
38609;SDS011;24367;51.640;9.566;2022-07-29T08:18:39;5.95;;;1.80;;
38609;SDS011;24367;51.640;9.566;2022-07-29T08:21:06;5.80;;;1.75;;
38609;SDS011;24367;51.640;9.566;2022-07-29T08:23:32;5.30;;;1.58;;
38609;SDS011;24367;51.640;9.566;2022-07-29T08:26:03;4.40;;;1.80;;
38609;SDS011;24367;51.640;9.566;2022-07-29T08:28:30;5.47;;;1.80;;
38609;SDS011;24367;51.640;9.566;2022-07-29T08:30:57;8.70;;;1.75;;
38609;SDS011;24367;51.640;9.566;2022-07-29T08:33:23;6.43;;;1.95;;
38609;SDS011;24367;51.640;9.566;2022-07-29T08:35:51;6.88;;;1.90;;
38609;SDS011;24367;51.640;9.566;2022-07-29T08:38:17;4.47;;;1.83;;
38609;SDS011;24367;51.640;9.566;2022-07-29T08:40:44;5.10;;;1.42;;
38609;SDS011;24367;51.640;9.566;2022-07-29T08:43:11;6.43;;;1.90;;
38609;SDS011;24367;51.640;9.566;2022-07-29T08:45:40;2.80;;;1.30;;
38609;SDS011;24367;51.640;9.566;2022-07-29T08:48:09;3.72;;;1.40;;
38609;SDS011;24367;51.640;9.566;2022-07-29T08:50:36;3.63;;;1.50;;
38609;SDS011;24367;51.640;9.566;2022-07-29T08:53:04;4.90;;;1.88;;
38609;SDS011;24367;51.640;9.566;2022-07-29T08:55:31;3.95;;;1.60;;
38609;SDS011;24367;51.640;9.566;2022-07-29T08:57:58;5.80;;;1.77;;
38609;SDS011;24367;51.640;9.566;2022-07-29T09:00:26;5.18;;;2.22;;
38609;SDS011;24367;51.640;9.566;2022-07-29T09:02:56;2.80;;;1.15;;
38609;SDS011;24367;51.640;9.566;2022-07-29T09:05:23;4.78;;;1.60;;
38609;SDS011;24367;51.640;9.566;2022-07-29T09:07:50;3.20;;;1.48;;
38609;SDS011;24367;51.640;9.566;2022-07-29T09:10:18;5.13;;;2.10;;
38609;SDS011;24367;51.640;9.566;2022-07-29T09:12:46;6.60;;;1.70;;
38609;SDS011;24367;51.640;9.566;2022-07-29T09:15:13;4.78;;;1.60;;
38609;SDS011;24367;51.640;9.566;2022-07-29T09:17:40;5.28;;;2.08;;
38609;SDS011;24367;51.640;9.566;2022-07-29T09:20:09;3.03;;;1.50;;
38609;SDS011;24367;51.640;9.566;2022-07-29T09:22:36;7.05;;;1.58;;
38609;SDS011;24367;51.640;9.566;2022-07-29T09:25:02;6.45;;;1.85;;
38609;SDS011;24367;51.640;9.566;2022-07-29T09:27:31;9.00;;;1.98;;
38609;SDS011;24367;51.640;9.566;2022-07-29T09:29:59;9.15;;;1.92;;
38609;SDS011;24367;51.640;9.566;2022-07-29T09:32:26;7.05;;;1.85;;
38609;SDS011;24367;51.640;9.566;2022-07-29T09:37:41;13.20;;;2.10;;
38609;SDS011;24367;51.640;9.566;2022-07-29T09:40:11;6.90;;;2.17;;
38609;SDS011;24367;51.640;9.566;2022-07-29T09:42:39;6.15;;;1.75;;
38609;SDS011;24367;51.640;9.566;2022-07-29T09:45:06;5.38;;;2.22;;
38609;SDS011;24367;51.640;9.566;2022-07-29T09:47:40;4.65;;;1.60;;
38609;SDS011;24367;51.640;9.566;2022-07-29T09:50:10;7.00;;;2.08;;
38609;SDS011;24367;51.640;9.566;2022-07-29T09:52:44;8.57;;;2.22;;
38609;SDS011;24367;51.640;9.566;2022-07-29T09:55:11;7.07;;;2.35;;
38609;SDS011;24367;51.640;9.566;2022-07-29T09:57:40;6.07;;;2.20;;
38609;SDS011;24367;51.640;9.566;2022-07-29T10:00:08;8.73;;;2.20;;
38609;SDS011;24367;51.640;9.566;2022-07-29T10:02:39;4.45;;;1.60;;
38609;SDS011;24367;51.640;9.566;2022-07-29T10:05:15;7.30;;;2.25;;
38609;SDS011;24367;51.640;9.566;2022-07-29T10:07:44;6.05;;;2.35;;
38609;SDS011;24367;51.640;9.566;2022-07-29T10:10:17;6.00;;;2.50;;
38609;SDS011;24367;51.640;9.566;2022-07-29T10:12:50;6.22;;;1.88;;
38609;SDS011;24367;51.640;9.566;2022-07-29T10:15:18;4.30;;;1.73;;
38609;SDS011;24367;51.640;9.566;2022-07-29T10:17:46;5.32;;;1.90;;
38609;SDS011;24367;51.640;9.566;2022-07-29T10:20:13;5.95;;;2.13;;
38609;SDS011;24367;51.640;9.566;2022-07-29T10:22:40;7.38;;;1.95;;
38609;SDS011;24367;51.640;9.566;2022-07-29T10:25:07;6.70;;;2.28;;
38609;SDS011;24367;51.640;9.566;2022-07-29T10:27:34;5.03;;;2.15;;
38609;SDS011;24367;51.640;9.566;2022-07-29T10:30:03;5.88;;;2.10;;
38609;SDS011;24367;51.640;9.566;2022-07-29T10:32:35;3.60;;;1.90;;
38609;SDS011;24367;51.640;9.566;2022-07-29T10:35:09;4.45;;;1.88;;
38609;SDS011;24367;51.640;9.566;2022-07-29T10:37:46;4.20;;;2.15;;
38609;SDS011;24367;51.640;9.566;2022-07-29T10:40:26;5.00;;;1.90;;
38609;SDS011;24367;51.640;9.566;2022-07-29T10:43:14;4.85;;;2.17;;
38609;SDS011;24367;51.640;9.566;2022-07-29T10:45:45;5.32;;;2.30;;
38609;SDS011;24367;51.640;9.566;2022-07-29T10:48:13;5.93;;;1.85;;
38609;SDS011;24367;51.640;9.566;2022-07-29T10:50:52;6.22;;;2.15;;
38609;SDS011;24367;51.640;9.566;2022-07-29T10:53:20;5.13;;;1.83;;
38609;SDS011;24367;51.640;9.566;2022-07-29T10:55:46;5.50;;;2.33;;
38609;SDS011;24367;51.640;9.566;2022-07-29T10:58:15;7.70;;;2.33;;
38609;SDS011;24367;51.640;9.566;2022-07-29T11:00:43;5.78;;;2.40;;
38609;SDS011;24367;51.640;9.566;2022-07-29T11:06:03;5.15;;;2.40;;
38609;SDS011;24367;51.640;9.566;2022-07-29T11:08:30;3.80;;;2.10;;
38609;SDS011;24367;51.640;9.566;2022-07-29T11:13:56;8.82;;;2.10;;
38609;SDS011;24367;51.640;9.566;2022-07-29T11:16:23;6.28;;;2.42;;
38609;SDS011;24367;51.640;9.566;2022-07-29T11:21:46;5.25;;;2.38;;
38609;SDS011;24367;51.640;9.566;2022-07-29T11:24:15;5.10;;;2.50;;
38609;SDS011;24367;51.640;9.566;2022-07-29T11:26:42;24.42;;;3.47;;
38609;SDS011;24367;51.640;9.566;2022-07-29T11:29:15;9.45;;;2.28;;
38609;SDS011;24367;51.640;9.566;2022-07-29T11:31:44;14.15;;;2.65;;
38609;SDS011;24367;51.640;9.566;2022-07-29T11:34:17;11.82;;;2.53;;
38609;SDS011;24367;51.640;9.566;2022-07-29T11:39:45;5.90;;;2.25;;
38609;SDS011;24367;51.640;9.566;2022-07-29T11:45:15;7.78;;;2.60;;
38609;SDS011;24367;51.640;9.566;2022-07-29T11:47:47;9.73;;;3.20;;
38609;SDS011;24367;51.640;9.566;2022-07-29T11:50:26;11.38;;;2.67;;
38609;SDS011;24367;51.640;9.566;2022-07-29T11:52:56;8.43;;;2.13;;
38609;SDS011;24367;51.640;9.566;2022-07-29T11:55:23;14.45;;;2.88;;
38609;SDS011;24367;51.640;9.566;2022-07-29T11:57:51;7.93;;;3.00;;
38609;SDS011;24367;51.640;9.566;2022-07-29T12:00:26;7.22;;;2.78;;
38609;SDS011;24367;51.640;9.566;2022-07-29T12:02:54;8.80;;;3.17;;
38609;SDS011;24367;51.640;9.566;2022-07-29T12:05:25;11.07;;;3.13;;
38609;SDS011;24367;51.640;9.566;2022-07-29T12:08:00;12.43;;;2.67;;
38609;SDS011;24367;51.640;9.566;2022-07-29T12:10:30;12.13;;;2.90;;
38609;SDS011;24367;51.640;9.566;2022-07-29T12:12:57;13.88;;;3.35;;
38609;SDS011;24367;51.640;9.566;2022-07-29T12:15:23;7.00;;;2.42;;
38609;SDS011;24367;51.640;9.566;2022-07-29T12:17:51;10.65;;;3.03;;
38609;SDS011;24367;51.640;9.566;2022-07-29T12:20:22;6.55;;;3.08;;
38609;SDS011;24367;51.640;9.566;2022-07-29T12:22:49;5.55;;;2.78;;
38609;SDS011;24367;51.640;9.566;2022-07-29T12:25:17;7.40;;;3.33;;
38609;SDS011;24367;51.640;9.566;2022-07-29T12:27:43;5.90;;;3.10;;
38609;SDS011;24367;51.640;9.566;2022-07-29T12:30:11;4.75;;;2.20;;
38609;SDS011;24367;51.640;9.566;2022-07-29T12:32:40;5.45;;;2.83;;
38609;SDS011;24367;51.640;9.566;2022-07-29T12:35:09;8.27;;;2.90;;
38609;SDS011;24367;51.640;9.566;2022-07-29T12:37:37;6.65;;;2.83;;
38609;SDS011;24367;51.640;9.566;2022-07-29T12:40:05;24.20;;;3.70;;
38609;SDS011;24367;51.640;9.566;2022-07-29T12:42:34;10.82;;;3.20;;
38609;SDS011;24367;51.640;9.566;2022-07-29T12:45:00;7.88;;;2.80;;
38609;SDS011;24367;51.640;9.566;2022-07-29T12:47:27;9.52;;;2.70;;
38609;SDS011;24367;51.640;9.566;2022-07-29T12:50:07;5.10;;;2.80;;
38609;SDS011;24367;51.640;9.566;2022-07-29T12:52:34;6.32;;;2.50;;
38609;SDS011;24367;51.640;9.566;2022-07-29T12:55:01;3.60;;;2.20;;
38609;SDS011;24367;51.640;9.566;2022-07-29T12:57:27;7.13;;;2.58;;
38609;SDS011;24367;51.640;9.566;2022-07-29T13:00:02;7.78;;;2.90;;
38609;SDS011;24367;51.640;9.566;2022-07-29T13:02:32;5.95;;;2.72;;
38609;SDS011;24367;51.640;9.566;2022-07-29T13:05:00;7.70;;;2.80;;
38609;SDS011;24367;51.640;9.566;2022-07-29T13:07:27;7.32;;;3.25;;
38609;SDS011;24367;51.640;9.566;2022-07-29T13:10:08;10.13;;;2.63;;
38609;SDS011;24367;51.640;9.566;2022-07-29T13:12:36;6.32;;;2.63;;
38609;SDS011;24367;51.640;9.566;2022-07-29T13:15:13;6.70;;;2.80;;
38609;SDS011;24367;51.640;9.566;2022-07-29T13:17:41;7.97;;;2.72;;
38609;SDS011;24367;51.640;9.566;2022-07-29T13:20:09;5.07;;;2.58;;
38609;SDS011;24367;51.640;9.566;2022-07-29T13:22:39;11.60;;;2.97;;
38609;SDS011;24367;51.640;9.566;2022-07-29T13:25:07;4.80;;;2.70;;
38609;SDS011;24367;51.640;9.566;2022-07-29T13:27:35;6.75;;;2.42;;
38609;SDS011;24367;51.640;9.566;2022-07-29T13:30:04;6.22;;;2.75;;
38609;SDS011;24367;51.640;9.566;2022-07-29T13:32:33;5.30;;;2.65;;
38609;SDS011;24367;51.640;9.566;2022-07-29T13:35:02;6.57;;;3.13;;
38609;SDS011;24367;51.640;9.566;2022-07-29T13:37:29;9.60;;;2.92;;
38609;SDS011;24367;51.640;9.566;2022-07-29T13:39:57;9.75;;;2.58;;
38609;SDS011;24367;51.640;9.566;2022-07-29T13:42:24;10.60;;;2.88;;
38609;SDS011;24367;51.640;9.566;2022-07-29T13:44:51;6.97;;;3.00;;
38609;SDS011;24367;51.640;9.566;2022-07-29T13:47:18;7.78;;;2.72;;
38609;SDS011;24367;51.640;9.566;2022-07-29T13:49:46;11.07;;;3.40;;
38609;SDS011;24367;51.640;9.566;2022-07-29T13:52:12;7.10;;;2.70;;
38609;SDS011;24367;51.640;9.566;2022-07-29T13:54:39;5.05;;;2.90;;
38609;SDS011;24367;51.640;9.566;2022-07-29T13:57:05;10.13;;;2.45;;
38609;SDS011;24367;51.640;9.566;2022-07-29T13:59:32;5.95;;;2.20;;
38609;SDS011;24367;51.640;9.566;2022-07-29T14:01:59;6.30;;;2.65;;
38609;SDS011;24367;51.640;9.566;2022-07-29T14:04:25;9.95;;;2.78;;
38609;SDS011;24367;51.640;9.566;2022-07-29T14:06:53;5.75;;;2.95;;
38609;SDS011;24367;51.640;9.566;2022-07-29T14:09:19;5.25;;;2.50;;
38609;SDS011;24367;51.640;9.566;2022-07-29T14:11:46;5.10;;;2.50;;
38609;SDS011;24367;51.640;9.566;2022-07-29T14:14:14;6.30;;;2.30;;
38609;SDS011;24367;51.640;9.566;2022-07-29T14:16:41;6.95;;;2.83;;
38609;SDS011;24367;51.640;9.566;2022-07-29T14:19:07;8.82;;;2.20;;
38609;SDS011;24367;51.640;9.566;2022-07-29T14:21:33;8.32;;;2.85;;
38609;SDS011;24367;51.640;9.566;2022-07-29T14:24:01;4.00;;;2.28;;
38609;SDS011;24367;51.640;9.566;2022-07-29T14:26:28;6.00;;;2.20;;
38609;SDS011;24367;51.640;9.566;2022-07-29T14:28:54;6.80;;;2.50;;
38609;SDS011;24367;51.640;9.566;2022-07-29T14:31:21;7.40;;;2.55;;
38609;SDS011;24367;51.640;9.566;2022-07-29T14:33:47;6.35;;;3.15;;
38609;SDS011;24367;51.640;9.566;2022-07-29T14:36:13;5.50;;;2.00;;
38609;SDS011;24367;51.640;9.566;2022-07-29T14:38:40;4.35;;;2.42;;
38609;SDS011;24367;51.640;9.566;2022-07-29T14:41:08;5.45;;;2.53;;
38609;SDS011;24367;51.640;9.566;2022-07-29T14:43:34;6.00;;;2.47;;
38609;SDS011;24367;51.640;9.566;2022-07-29T14:46:01;5.38;;;2.45;;
38609;SDS011;24367;51.640;9.566;2022-07-29T14:48:27;5.32;;;2.50;;
38609;SDS011;24367;51.640;9.566;2022-07-29T14:50:54;6.22;;;2.67;;
38609;SDS011;24367;51.640;9.566;2022-07-29T14:53:21;4.15;;;2.53;;
38609;SDS011;24367;51.640;9.566;2022-07-29T14:55:47;4.00;;;2.60;;
38609;SDS011;24367;51.640;9.566;2022-07-29T14:58:15;4.60;;;2.10;;
38609;SDS011;24367;51.640;9.566;2022-07-29T15:00:42;3.85;;;2.17;;
38609;SDS011;24367;51.640;9.566;2022-07-29T15:03:08;5.10;;;2.83;;
38609;SDS011;24367;51.640;9.566;2022-07-29T15:05:35;5.00;;;2.33;;
38609;SDS011;24367;51.640;9.566;2022-07-29T15:08:02;5.63;;;2.50;;
38609;SDS011;24367;51.640;9.566;2022-07-29T15:10:28;5.20;;;2.53;;